TAF Text Data
IDs:
Format:
Raw Decoded Include METAR

Data at: 0409 UTC 24 Jun 2021

KLAR 232320Z 2400/2424 28015G25KT P6SM VCSH BKN120
  FM240200 26010KT P6SM BKN150
  FM240400 18007KT P6SM BKN150
  FM241500 23012G24KT P6SM BKN100
  FM241900 23013G24KT P6SM VCTS BKN080CB